Time;durP1;ratioP1;P1;durP2;ratioP2;P2;SDS_P1;SDS_P2;PMS_P1;PMS_P2;Temp;Humidity;BMP_temperature;BMP_pressure;BME280_temperature;BME280_humidity;BME280_pressure;Samples;Min_cycle;Max_cycle;Signal;HPM_P1;HPM_P2
2020/12/08 08:13:54;;;;;;;27.75;15.73;;;;;;;;;;4935694;28;20212;-85
2020/12/08 08:19:21;;;;;;;27.75;17.63;;;;;;;;;;4994368;28;20208;-86
2020/12/08 08:40:02;;;;;;;32.58;18.10;;;;;;;;;;4779841;30;20216;-85
2020/12/08 11:52:46;;;;;;;16.17;14.47;;;15.10;97.70;;;;;;5207409;23;20553;-84
2020/12/08 13:06:42;;;;;;;18.37;13.67;;;12.60;71.80;;;;;;5001510;23;20571;-84
2020/12/08 13:09:41;;;;;;;20.30;15.13;;;12.30;72.70;;;;;;4998561;28;20869;-84
2020/12/08 13:12:07;;;;;;;18.10;14.40;;;12.30;79.00;;;;;;4998852;28;20448;-86
2020/12/08 13:21:04;;;;;;;;;;;;;;;;;;;;;
2020/12/08 13:27:36;;;;;;;;;;;;;;;;;;;;;
2020/12/08 15:04:22;;;;;;;;;;;;;;;;;;;;;
2020/12/08 19:19:10;;;;;;;28.87;21.27;;;2.00;99.90;;;;;;4874937;29;20195;-84
2020/12/08 21:31:06;;;;;;;38.17;21.23;;;2.10;99.90;;;;;;4788978;29;20228;-84
2020/12/08 21:33:34;;;;;;;42.83;22.23;;;2.30;99.90;;;;;;4842144;29;20217;-83
2020/12/08 21:36:06;;;;;;;45.58;22.40;;;2.30;99.90;;;;;;4916094;29;20267;-85
2020/12/08 21:38:32;;;;;;;36.75;21.30;;;2.60;99.90;;;;;;4914015;29;20227;-84
2020/12/08 21:40:58;;;;;;;39.63;23.15;;;2.30;99.90;;;;;;4910017;29;20215;-85
2020/12/08 21:43:25;;;;;;;38.03;23.27;;;2.30;99.90;;;;;;4904876;29;20212;-83
2020/12/08 21:45:51;;;;;;;32.45;21.08;;;2.30;99.90;;;;;;4918926;28;20233;-85
2020/12/08 21:48:17;;;;;;;39.08;21.52;;;2.50;99.90;;;;;;4963160;28;20208;-85
2020/12/08 21:50:47;;;;;;;33.28;22.33;;;2.40;99.90;;;;;;4962669;28;20220;-84
2020/12/08 21:53:16;;;;;;;35.33;23.60;;;2.30;99.90;;;;;;4961696;28;20213;-84
2020/12/08 21:55:42;;;;;;;41.10;23.98;;;2.30;99.90;;;;;;4962135;28;20237;-86
2020/12/08 21:58:09;;;;;;;40.92;23.30;;;2.20;99.90;;;;;;4970018;28;20217;-86
2020/12/08 22:00:35;;;;;;;39.15;23.40;;;2.20;99.90;;;;;;4975384;28;20210;-85
2020/12/08 22:03:01;;;;;;;36.17;20.38;;;2.00;99.90;;;;;;4981156;28;20215;-86
2020/12/08 22:05:28;;;;;;;38.95;22.65;;;2.20;99.90;;;;;;4980158;28;20229;-86
2020/12/08 22:07:55;;;;;;;37.33;21.30;;;2.30;99.90;;;;;;4980797;28;20206;-86
2020/12/08 22:10:21;;;;;;;40.72;22.42;;;2.30;99.90;;;;;;4981200;28;20213;-86
2020/12/08 22:12:49;;;;;;;42.67;23.33;;;2.20;99.90;;;;;;4980383;28;20217;-86
2020/12/08 22:15:16;;;;;;;44.65;27.20;;;2.10;99.90;;;;;;4980321;28;20233;-86
2020/12/08 22:17:43;;;;;;;44.72;20.35;;;1.60;99.90;;;;;;4980520;28;20661;-86
2020/12/08 22:20:10;;;;;;;34.10;22.40;;;2.10;99.90;;;;;;4980619;28;20236;-86
2020/12/08 22:22:37;;;;;;;36.75;21.65;;;2.30;99.90;;;;;;4980794;28;20201;-86
2020/12/08 22:25:07;;;;;;;39.85;20.67;;;2.20;99.90;;;;;;4980807;28;20244;-85
2020/12/08 22:27:35;;;;;;;44.53;23.17;;;2.10;99.90;;;;;;4981821;28;20663;-86
2020/12/08 22:30:01;;;;;;;40.67;22.58;;;2.20;99.90;;;;;;4980195;28;20209;-86
2020/12/08 22:32:30;;;;;;;38.60;19.98;;;2.10;99.90;;;;;;4979400;28;20217;-86
2020/12/08 22:34:56;;;;;;;39.45;21.10;;;1.90;99.90;;;;;;4980390;28;20260;-86
2020/12/08 22:37:23;;;;;;;41.05;24.58;;;2.00;99.90;;;;;;4981482;28;20225;-87
2020/12/08 22:39:50;;;;;;;37.13;24.23;;;2.10;99.90;;;;;;4980656;28;20216;-87
2020/12/08 22:42:17;;;;;;;38.75;20.02;;;1.80;99.90;;;;;;4980575;28;20217;-86
2020/12/08 22:44:43;;;;;;;32.45;20.17;;;1.70;99.90;;;;;;4981559;28;20209;-85
2020/12/08 22:47:09;;;;;;;47.20;23.05;;;2.00;99.90;;;;;;4980886;28;20599;-86
2020/12/08 22:49:36;;;;;;;43.25;25.13;;;1.90;99.90;;;;;;4980544;28;20213;-85
2020/12/08 22:52:02;;;;;;;35.55;22.17;;;2.10;99.90;;;;;;4980724;28;20545;-86
2020/12/08 22:54:28;;;;;;;42.45;23.40;;;1.90;99.90;;;;;;4981117;28;20276;-83
